createdAt,value
2017-06-08T00:01:32.230Z,58.40
2017-06-08T00:04:00.300Z,59.30
2017-06-08T00:06:28.386Z,58.10
2017-06-08T00:08:56.463Z,58.50
2017-06-08T00:11:24.523Z,59.20
2017-06-08T00:13:52.594Z,59.00
2017-06-08T00:16:20.659Z,59.00
2017-06-08T00:18:48.735Z,58.50
2017-06-08T00:21:16.790Z,58.50
2017-06-08T00:23:44.879Z,58.00
2017-06-08T00:26:12.939Z,58.00
2017-06-08T00:28:40.999Z,57.50
2017-06-08T00:31:09.076Z,57.40
2017-06-08T00:33:37.127Z,57.50
2017-06-08T00:36:05.208Z,57.30
2017-06-08T00:38:33.267Z,56.90
2017-06-08T00:41:01.351Z,56.70
2017-06-08T00:43:29.407Z,57.10
2017-06-08T00:45:57.463Z,56.00
2017-06-08T00:48:26.302Z,56.10
2017-06-08T00:50:54.359Z,56.00
2017-06-08T00:53:22.466Z,56.60
2017-06-08T00:55:50.498Z,57.20
2017-06-08T00:58:18.554Z,56.30
2017-06-08T01:00:46.631Z,56.60
2017-06-08T01:03:14.686Z,57.20
2017-06-08T01:05:43.534Z,58.20
2017-06-08T01:08:11.598Z,58.10
2017-06-08T01:10:39.659Z,58.70
2017-06-08T01:13:07.726Z,58.50
2017-06-08T01:15:35.783Z,58.10
2017-06-08T01:18:03.861Z,56.70
2017-06-08T01:20:31.922Z,57.20
2017-06-08T01:22:59.973Z,57.50
2017-06-08T01:25:28.062Z,57.30
2017-06-08T01:27:56.114Z,56.90
2017-06-08T01:30:24.934Z,56.40
2017-06-08T01:32:53.002Z,56.30
2017-06-08T01:35:21.058Z,56.40
2017-06-08T01:37:49.145Z,56.90
2017-06-08T01:40:17.197Z,56.50
2017-06-08T01:42:46.019Z,56.20
2017-06-08T01:45:14.097Z,56.20
2017-06-08T01:47:42.155Z,56.10
2017-06-08T01:50:10.271Z,56.70
2017-06-08T01:52:38.382Z,56.10
2017-06-08T01:55:06.434Z,56.60
2017-06-08T01:57:34.487Z,56.70
2017-06-08T02:00:02.570Z,56.90
2017-06-08T02:02:30.626Z,57.10
2017-06-08T02:04:58.688Z,57.00
2017-06-08T02:07:26.762Z,57.70
2017-06-08T02:09:54.818Z,58.00
2017-06-08T02:12:22.878Z,58.50
2017-06-08T02:14:50.947Z,58.60
2017-06-08T02:17:18.998Z,58.20
2017-06-08T02:19:47.078Z,58.80
2017-06-08T02:22:15.151Z,58.30
2017-06-08T02:24:43.206Z,58.00
2017-06-08T02:27:11.274Z,58.40
2017-06-08T02:29:40.115Z,59.50
2017-06-08T02:32:08.171Z,59.50
2017-06-08T02:34:36.227Z,59.20
2017-06-08T02:37:04.313Z,58.40
2017-06-08T02:39:32.369Z,58.10
2017-06-08T02:42:00.446Z,57.90
2017-06-08T02:44:28.562Z,57.30
2017-06-08T02:46:56.622Z,57.50
2017-06-08T02:49:24.678Z,57.90
2017-06-08T02:51:52.774Z,57.30
2017-06-08T02:54:20.826Z,57.80
2017-06-08T02:56:48.885Z,58.70
2017-06-08T02:59:17.285Z,59.30
2017-06-08T03:01:45.340Z,58.70
2017-06-08T03:04:13.390Z,59.50
2017-06-08T03:06:41.480Z,58.80
2017-06-08T03:09:09.526Z,59.40
2017-06-08T03:11:37.582Z,58.80
2017-06-08T03:14:06.417Z,60.00
2017-06-08T03:16:34.538Z,60.00
2017-06-08T03:19:02.590Z,60.50
2017-06-08T03:21:30.662Z,60.30
2017-06-08T03:23:59.176Z,59.60
2017-06-08T03:26:27.998Z,61.50
2017-06-08T03:28:56.066Z,61.50
2017-06-08T03:31:24.194Z,61.10
2017-06-08T03:33:52.233Z,60.00
2017-06-08T03:36:20.286Z,60.00
2017-06-08T03:38:48.366Z,60.80
2017-06-08T03:41:16.460Z,61.70
2017-06-08T03:43:44.509Z,59.60
2017-06-08T03:46:12.590Z,60.00
2017-06-08T03:48:40.642Z,60.10
2017-06-08T03:51:08.697Z,59.80
2017-06-08T03:53:36.775Z,60.20
2017-06-08T03:56:04.829Z,60.10
2017-06-08T03:58:32.887Z,59.40
2017-06-08T04:01:00.958Z,60.00
2017-06-08T04:03:29.040Z,60.00
2017-06-08T04:05:57.886Z,59.80
2017-06-08T04:08:25.955Z,59.40
2017-06-08T04:10:54.042Z,59.30
2017-06-08T04:13:22.102Z,58.90
2017-06-08T04:15:50.173Z,59.70
2017-06-08T04:18:18.229Z,59.60
2017-06-08T04:20:46.283Z,59.50
2017-06-08T04:23:14.398Z,59.50
2017-06-08T04:25:42.455Z,59.00
2017-06-08T04:28:10.507Z,59.00
2017-06-08T04:30:38.589Z,58.30
2017-06-08T04:33:06.642Z,58.40
2017-06-08T04:35:34.695Z,58.00
2017-06-08T04:38:03.538Z,58.90
2017-06-08T04:40:31.589Z,58.80
2017-06-08T04:42:59.637Z,57.50
2017-06-08T04:45:27.714Z,58.40
2017-06-08T04:47:55.773Z,57.50
2017-06-08T04:50:24.613Z,58.00
2017-06-08T04:52:52.666Z,57.90
2017-06-08T04:55:20.722Z,57.50
2017-06-08T04:57:48.808Z,57.70
2017-06-08T05:00:16.863Z,57.90
2017-06-08T05:02:44.918Z,56.60
2017-06-08T05:05:13.006Z,57.30
2017-06-08T05:07:41.062Z,57.90
2017-06-08T05:10:09.886Z,57.70
2017-06-08T05:12:37.958Z,57.70
2017-06-08T05:15:06.038Z,59.00
2017-06-08T05:17:34.090Z,59.70
2017-06-08T05:20:02.175Z,56.80
2017-06-08T05:22:30.282Z,57.30
2017-06-08T05:24:58.321Z,59.40
2017-06-08T05:27:26.373Z,57.40
2017-06-08T05:29:54.445Z,57.50
2017-06-08T05:32:22.502Z,56.40
2017-06-08T05:34:50.571Z,57.40
2017-06-08T05:37:18.621Z,53.90
2017-06-08T05:39:46.711Z,56.70
2017-06-08T05:42:15.526Z,55.90
2017-06-08T05:44:43.590Z,55.80
2017-06-08T05:47:11.710Z,55.30
2017-06-08T05:49:39.778Z,55.60
2017-06-08T05:52:07.842Z,53.10
2017-06-08T05:54:35.963Z,54.60
2017-06-08T05:57:04.781Z,51.00
2017-06-08T05:59:32.838Z,51.00
2017-06-08T06:02:00.917Z,53.20
2017-06-08T06:04:28.981Z,51.80
2017-06-08T06:06:57.038Z,51.10
2017-06-08T06:09:25.882Z,50.80
2017-06-08T06:11:53.938Z,50.80
2017-06-08T06:14:21.993Z,50.80
2017-06-08T06:16:50.083Z,52.10
2017-06-08T06:19:18.141Z,53.20
2017-06-08T06:21:46.201Z,53.60
2017-06-08T06:24:14.286Z,53.40
2017-06-08T06:26:42.347Z,53.60
2017-06-08T06:29:10.406Z,53.30
2017-06-08T06:31:38.491Z,52.80
2017-06-08T06:34:06.544Z,51.80
2017-06-08T06:36:35.420Z,51.30
2017-06-08T06:39:03.474Z,51.30
2017-06-08T06:41:31.531Z,50.30
2017-06-08T06:43:59.614Z,50.60
2017-06-08T06:46:27.667Z,50.60
2017-06-08T06:48:55.723Z,50.00
2017-06-08T06:51:23.797Z,48.40
2017-06-08T06:53:51.854Z,48.90
2017-06-08T06:56:19.917Z,47.30
2017-06-08T06:58:47.990Z,45.80
2017-06-08T07:01:16.050Z,46.60
2017-06-08T07:03:44.870Z,46.30
2017-06-08T07:06:12.943Z,46.20
2017-06-08T07:08:41.014Z,47.60
2017-06-08T07:11:09.070Z,48.20
2017-06-08T07:13:37.166Z,46.00
2017-06-08T07:16:05.231Z,47.00
2017-06-08T07:18:33.286Z,46.60
2017-06-08T07:21:01.367Z,46.70
2017-06-08T07:23:29.414Z,45.50
2017-06-08T07:25:57.507Z,45.60
2017-06-08T07:28:25.557Z,45.10
2017-06-08T07:30:54.382Z,45.40
2017-06-08T07:33:22.445Z,45.30
2017-06-08T07:35:50.504Z,45.10
2017-06-08T07:38:19.969Z,45.60
2017-06-08T07:40:48.030Z,46.50
2017-06-08T07:43:16.082Z,45.70
2017-06-08T07:45:44.153Z,46.20
2017-06-08T07:48:12.206Z,45.40
2017-06-08T07:50:40.294Z,44.90
2017-06-08T07:53:08.354Z,44.10
2017-06-08T07:55:36.410Z,45.00
2017-06-08T07:58:04.506Z,44.00
2017-06-08T08:00:32.567Z,45.40
2017-06-08T08:03:08.535Z,43.20
2017-06-08T08:05:36.590Z,43.50
2017-06-08T08:08:04.646Z,44.50
2017-06-08T08:10:32.721Z,43.70
2017-06-08T08:13:00.786Z,44.40
2017-06-08T08:15:29.602Z,41.50
2017-06-08T08:17:57.680Z,41.50
2017-06-08T08:20:25.734Z,42.20
2017-06-08T08:25:28.354Z,43.00
2017-06-08T08:27:56.407Z,42.00
2017-06-08T08:30:24.463Z,43.60
2017-06-08T08:32:53.310Z,42.70
2017-06-08T08:35:21.366Z,42.70
2017-06-08T08:37:49.426Z,42.40
2017-06-08T08:40:17.528Z,41.60
2017-06-08T08:42:45.566Z,42.30
2017-06-08T08:45:13.622Z,40.80
2017-06-08T08:47:41.692Z,41.10
2017-06-08T08:50:09.746Z,41.10
2017-06-08T08:52:37.867Z,41.30
2017-06-08T08:55:05.925Z,41.70
2017-06-08T08:57:33.973Z,41.90
2017-06-08T09:00:02.078Z,41.00
2017-06-08T09:02:30.125Z,39.60
2017-06-08T09:04:58.181Z,39.90
2017-06-08T09:07:27.030Z,40.80
2017-06-08T09:09:55.077Z,40.70
2017-06-08T09:12:23.134Z,39.70
2017-06-08T09:14:51.218Z,39.70
2017-06-08T09:17:19.274Z,40.30
2017-06-08T09:19:47.325Z,37.60
2017-06-08T09:22:15.414Z,38.10
2017-06-08T09:24:43.469Z,38.30
2017-06-08T09:27:11.523Z,38.20
2017-06-08T09:29:39.962Z,37.00
2017-06-08T09:32:07.994Z,38.10
2017-06-08T09:34:36.819Z,36.60
2017-06-08T09:37:04.903Z,36.60
2017-06-08T09:39:32.955Z,35.60
2017-06-08T09:42:01.018Z,37.40
2017-06-08T09:44:29.094Z,37.10
2017-06-08T09:46:57.154Z,35.60
2017-06-08T09:49:25.210Z,35.50
2017-06-08T09:51:53.286Z,35.20
2017-06-08T09:54:22.109Z,35.60
2017-06-08T09:56:50.158Z,36.20
2017-06-08T09:59:18.225Z,36.00
2017-06-08T10:01:47.043Z,36.30
2017-06-08T10:04:15.110Z,36.30
2017-06-08T10:06:43.162Z,33.00
2017-06-08T10:09:11.258Z,34.00
2017-06-08T10:11:39.310Z,33.20
2017-06-08T10:14:07.366Z,33.60
2017-06-08T10:16:36.203Z,32.70
2017-06-08T10:19:04.257Z,32.80
2017-06-08T10:21:32.327Z,33.90
2017-06-08T10:24:00.404Z,32.70
2017-06-08T10:26:28.459Z,33.10
2017-06-08T10:28:56.542Z,33.00
2017-06-08T10:31:24.590Z,31.80
2017-06-08T10:33:53.654Z,31.40
2017-06-08T10:36:21.723Z,31.30
2017-06-08T10:38:49.779Z,31.00
2017-06-08T10:41:17.854Z,32.00
2017-06-08T10:43:45.911Z,31.60
2017-06-08T10:46:13.994Z,31.50
2017-06-08T10:48:42.050Z,31.90
2017-06-08T10:51:10.123Z,30.70
2017-06-08T10:53:38.223Z,30.00
2017-06-08T10:56:06.284Z,31.40
2017-06-08T10:58:34.342Z,31.40
2017-06-08T11:01:02.426Z,30.50
2017-06-08T11:03:30.486Z,30.90
2017-06-08T11:05:58.543Z,30.60
2017-06-08T11:08:26.634Z,31.10
2017-06-08T11:10:54.686Z,30.10
2017-06-08T11:13:22.738Z,31.10
2017-06-08T11:15:50.822Z,29.90
2017-06-08T11:18:18.882Z,30.60
2017-06-08T11:20:46.937Z,31.80
2017-06-08T11:23:15.783Z,31.20
2017-06-08T11:25:43.831Z,30.70
2017-06-08T11:28:11.886Z,30.80
2017-06-08T11:30:39.974Z,30.80
2017-06-08T11:33:08.035Z,30.80
2017-06-08T11:35:36.094Z,31.60
2017-06-08T11:38:04.944Z,30.00
2017-06-08T11:40:33.003Z,30.00
2017-06-08T11:43:01.056Z,29.80
2017-06-08T11:45:29.146Z,28.70
2017-06-08T11:47:57.199Z,28.60
2017-06-08T11:50:26.110Z,29.60
2017-06-08T11:52:54.203Z,30.00
2017-06-08T11:55:22.262Z,29.40
2017-06-08T11:57:50.318Z,30.10
2017-06-08T12:00:18.407Z,29.80
2017-06-08T12:02:46.466Z,30.20
2017-06-08T12:05:14.514Z,30.00
2017-06-08T12:07:42.594Z,31.10
2017-06-08T12:10:10.651Z,29.60
2017-06-08T12:12:38.715Z,31.10
2017-06-08T12:15:06.830Z,30.40
2017-06-08T12:17:34.889Z,30.60
2017-06-08T12:20:02.948Z,30.40
2017-06-08T12:22:36.714Z,29.80
2017-06-08T12:25:04.787Z,29.30
2017-06-08T12:27:33.609Z,29.10
2017-06-08T12:30:01.696Z,29.00
2017-06-08T12:32:29.793Z,29.80
2017-06-08T12:34:57.851Z,29.80
2017-06-08T12:37:25.938Z,30.00
2017-06-08T12:39:53.995Z,28.80
2017-06-08T12:42:22.046Z,29.80
2017-06-08T12:44:50.121Z,29.40
2017-06-08T12:47:18.181Z,30.20
2017-06-08T12:49:46.287Z,30.20
2017-06-08T12:52:14.342Z,30.60
2017-06-08T12:54:42.398Z,30.00
2017-06-08T12:57:10.496Z,30.20
2017-06-08T12:59:38.546Z,29.40
2017-06-08T13:02:06.614Z,29.10
2017-06-08T13:04:34.703Z,29.70
2017-06-08T13:07:02.757Z,29.50
2017-06-08T13:09:30.822Z,29.40
2017-06-08T13:11:58.903Z,30.00
2017-06-08T13:14:26.961Z,30.00
2017-06-08T13:16:55.014Z,29.80
2017-06-08T13:19:23.866Z,29.50
2017-06-08T13:21:51.918Z,29.50
2017-06-08T13:24:19.978Z,28.60
2017-06-08T13:26:48.080Z,28.50
2017-06-08T13:29:16.126Z,27.20
2017-06-08T13:31:44.182Z,27.70
2017-06-08T13:34:12.274Z,29.20
2017-06-08T13:36:40.334Z,29.50
2017-06-08T13:39:08.385Z,29.20
2017-06-08T13:41:37.271Z,27.50
2017-06-08T13:44:06.090Z,27.80
2017-06-08T13:46:34.146Z,27.80
2017-06-08T13:49:02.227Z,27.00
2017-06-08T13:51:30.281Z,27.30
2017-06-08T13:53:58.342Z,27.10
2017-06-08T13:56:27.191Z,26.80
2017-06-08T13:58:55.240Z,26.80
2017-06-08T14:01:23.342Z,26.80
2017-06-08T14:03:51.393Z,27.20
2017-06-08T14:06:19.462Z,26.90
2017-06-08T14:08:47.637Z,26.60
2017-06-08T14:11:15.698Z,26.70
2017-06-08T14:13:43.765Z,26.30
2017-06-08T14:16:11.838Z,28.00
2017-06-08T14:18:39.902Z,28.20
2017-06-08T14:21:07.986Z,28.20
2017-06-08T14:23:36.038Z,28.50
2017-06-08T14:26:04.862Z,27.80
2017-06-08T14:28:32.978Z,27.80
2017-06-08T14:31:01.035Z,27.90
2017-06-08T14:33:29.086Z,27.40
2017-06-08T14:35:59.114Z,27.10
2017-06-08T14:38:28.712Z,26.30
2017-06-08T14:40:56.819Z,26.90
2017-06-08T14:43:24.915Z,26.50
2017-06-08T14:45:53.794Z,25.80
2017-06-08T14:48:22.659Z,26.30
2017-06-08T14:50:51.269Z,26.20
2017-06-08T14:53:20.131Z,27.40
2017-06-08T14:55:48.273Z,26.80
2017-06-08T14:58:17.079Z,27.20
2017-06-08T15:00:45.346Z,27.50
2017-06-08T15:03:13.402Z,28.60
2017-06-08T15:05:44.097Z,28.10
2017-06-08T15:08:13.065Z,29.10
2017-06-08T15:10:41.114Z,29.10
2017-06-08T15:13:09.205Z,28.50
2017-06-08T15:15:37.269Z,29.20
2017-06-08T15:18:05.360Z,28.90
2017-06-08T15:20:33.411Z,28.70
2017-06-08T15:23:01.462Z,27.10
2017-06-08T15:25:29.525Z,26.60
2017-06-08T15:27:57.598Z,26.00
2017-06-08T15:30:25.694Z,25.50
2017-06-08T15:32:53.742Z,26.10
2017-06-08T15:35:21.799Z,26.10
2017-06-08T15:37:49.983Z,26.20
2017-06-08T15:40:18.794Z,26.50
2017-06-08T15:42:46.855Z,26.40
2017-06-08T15:45:14.938Z,26.00
2017-06-08T15:47:42.989Z,25.60
2017-06-08T15:50:11.050Z,25.20
2017-06-08T15:52:39.134Z,25.80
2017-06-08T15:55:07.195Z,25.40
2017-06-08T15:57:35.251Z,26.00
2017-06-08T16:00:04.095Z,26.70
2017-06-08T16:02:32.150Z,26.50
2017-06-08T16:05:00.215Z,26.50
2017-06-08T16:07:28.331Z,25.70
2017-06-08T16:09:56.406Z,26.70
2017-06-08T16:12:24.462Z,25.70
2017-06-08T16:14:52.571Z,25.50
2017-06-08T16:17:21.420Z,26.20
2017-06-08T16:19:49.474Z,26.20
2017-06-08T16:22:17.563Z,25.60
2017-06-08T16:24:45.614Z,25.90
2017-06-08T16:27:13.675Z,26.30
2017-06-08T16:29:41.871Z,26.10
2017-06-08T16:32:09.930Z,26.30
2017-06-08T16:34:37.988Z,26.80
2017-06-08T16:37:06.086Z,27.50
2017-06-08T16:39:34.142Z,27.10
2017-06-08T16:42:02.202Z,27.70
2017-06-08T16:44:30.284Z,27.40
2017-06-08T16:46:58.340Z,27.30
2017-06-08T16:49:26.400Z,26.60
2017-06-08T16:51:55.238Z,27.50
2017-06-08T16:54:23.294Z,27.50
2017-06-08T16:56:51.345Z,27.60
2017-06-08T16:59:19.425Z,27.50
2017-06-08T17:01:47.486Z,27.00
2017-06-08T17:04:16.338Z,27.50
2017-06-08T17:06:44.398Z,27.30
2017-06-08T17:09:12.461Z,27.70
2017-06-08T17:11:40.545Z,28.40
2017-06-08T17:14:08.607Z,28.10
2017-06-08T17:16:36.693Z,28.70
2017-06-08T17:19:04.807Z,28.30
2017-06-08T17:21:33.618Z,29.30
2017-06-08T17:24:01.674Z,29.10
2017-06-08T17:26:29.767Z,28.90
2017-06-08T17:28:57.826Z,29.20
2017-06-08T17:31:25.897Z,29.50
2017-06-08T17:33:53.987Z,28.90
2017-06-08T17:36:22.051Z,28.90
2017-06-08T17:38:50.114Z,28.50
2017-06-08T17:41:18.190Z,28.80
2017-06-08T17:43:46.255Z,28.90
2017-06-08T17:46:14.310Z,29.30
2017-06-08T17:48:43.143Z,29.50
2017-06-08T17:51:11.226Z,30.00
2017-06-08T17:53:39.282Z,29.80
2017-06-08T17:56:07.341Z,29.30
2017-06-08T17:58:35.426Z,28.90
2017-06-08T18:01:03.489Z,29.00
2017-06-08T18:03:31.546Z,29.00
2017-06-08T18:06:00.022Z,28.70
2017-06-08T18:08:28.078Z,29.10
2017-06-08T18:10:56.135Z,29.10
2017-06-08T18:13:24.200Z,29.60
2017-06-08T18:15:52.277Z,30.00
2017-06-08T18:18:20.343Z,29.90
2017-06-08T18:20:48.398Z,29.50
2017-06-08T18:23:16.493Z,30.00
2017-06-08T18:25:44.543Z,30.00
2017-06-08T18:28:12.625Z,29.90
2017-06-08T18:30:40.697Z,29.90
2017-06-08T18:33:08.757Z,29.80
2017-06-08T18:35:36.815Z,29.90
2017-06-08T18:38:04.894Z,30.40
2017-06-08T18:40:32.956Z,30.60
2017-06-08T18:43:01.070Z,30.30
2017-06-08T18:45:29.110Z,30.30
2017-06-08T18:47:57.166Z,30.90
2017-06-08T18:50:25.243Z,30.30
2017-06-08T18:52:53.300Z,30.30
2017-06-08T18:55:21.390Z,29.60
2017-06-08T18:57:49.441Z,29.80
2017-06-08T19:00:17.503Z,29.60
2017-06-08T19:02:45.582Z,29.90
2017-06-08T19:05:13.638Z,29.90
2017-06-08T19:07:42.458Z,30.00
2017-06-08T19:10:10.535Z,30.00
2017-06-08T19:12:38.590Z,30.30
2017-06-08T19:15:06.676Z,30.90
2017-06-08T19:17:34.731Z,31.40
2017-06-08T19:20:02.791Z,31.80
2017-06-08T19:22:30.903Z,33.20
2017-06-08T19:24:58.967Z,33.90
2017-06-08T19:27:27.030Z,34.00
2017-06-08T19:29:55.118Z,34.40
2017-06-08T19:32:23.174Z,33.90
2017-06-08T19:34:51.230Z,33.90
2017-06-08T19:37:19.303Z,34.50
2017-06-08T19:39:47.376Z,35.40
2017-06-08T19:42:15.511Z,36.00
2017-06-08T19:44:43.751Z,36.10
2017-06-08T19:47:11.770Z,36.60
2017-06-08T19:49:39.848Z,37.40
2017-06-08T19:52:07.902Z,38.90
2017-06-08T19:54:35.955Z,39.60
2017-06-08T19:57:04.040Z,41.00
2017-06-08T19:59:32.099Z,41.20
2017-06-08T20:02:00.159Z,40.60
2017-06-08T20:04:28.295Z,41.50
2017-06-08T20:06:56.354Z,41.40
2017-06-08T20:09:25.190Z,43.20
2017-06-08T20:11:53.314Z,43.20
2017-06-08T20:14:22.162Z,44.20
2017-06-08T20:16:50.226Z,44.10
2017-06-08T20:19:18.315Z,43.50
2017-06-08T20:21:46.401Z,43.40
2017-06-08T20:24:15.234Z,44.20
2017-06-08T20:26:43.309Z,44.20
2017-06-08T20:29:11.367Z,44.50
2017-06-08T20:31:39.418Z,45.10
2017-06-08T20:34:08.263Z,46.60
2017-06-08T20:36:36.318Z,46.60
2017-06-08T20:39:04.541Z,47.30
2017-06-08T20:41:32.611Z,47.60
2017-06-08T20:44:00.666Z,47.70
2017-06-08T20:46:28.727Z,47.10
2017-06-08T20:48:56.804Z,46.10
2017-06-08T20:51:24.862Z,46.90
2017-06-08T20:53:52.923Z,47.40
2017-06-08T20:56:21.012Z,47.30
2017-06-08T20:58:49.058Z,47.10
2017-06-08T21:01:17.110Z,47.20
2017-06-08T21:03:45.953Z,47.60
2017-06-08T21:06:14.010Z,47.60
2017-06-08T21:08:42.070Z,48.00
2017-06-08T21:11:10.153Z,47.40
2017-06-08T21:13:38.218Z,47.40
2017-06-08T21:16:06.287Z,47.90
2017-06-08T21:18:35.173Z,48.30
2017-06-08T21:21:04.061Z,48.10
2017-06-08T21:23:35.481Z,47.70
2017-06-08T21:26:03.554Z,48.90
2017-06-08T21:28:32.417Z,48.60
2017-06-08T21:31:01.287Z,49.20
2017-06-08T21:33:29.343Z,48.50
2017-06-08T21:35:57.422Z,48.70
2017-06-08T21:38:25.613Z,48.70
2017-06-08T21:40:53.650Z,48.60
2017-06-08T21:43:21.706Z,48.60
2017-06-08T21:45:50.551Z,48.50
2017-06-08T21:48:18.612Z,48.50
2017-06-08T21:50:46.670Z,49.90
2017-06-08T21:53:14.752Z,48.80
2017-06-08T21:55:42.806Z,49.70
2017-06-08T21:58:10.886Z,49.60
2017-06-08T22:00:38.945Z,49.30
2017-06-08T22:03:07.002Z,49.50
2017-06-08T22:05:35.082Z,49.50
2017-06-08T22:08:03.134Z,49.90
2017-06-08T22:10:32.765Z,50.10
2017-06-08T22:13:00.908Z,50.20
2017-06-08T22:15:29.751Z,50.70
2017-06-08T22:17:58.399Z,49.80
2017-06-08T22:20:26.946Z,50.00
2017-06-08T22:22:55.064Z,47.20
2017-06-08T22:25:23.878Z,51.00
2017-06-08T22:27:51.956Z,50.80
2017-06-08T22:30:20.026Z,50.50
2017-06-08T22:32:48.078Z,51.00
2017-06-08T22:35:16.134Z,51.80
2017-06-08T22:37:44.990Z,52.10
2017-06-08T22:40:13.045Z,52.00
2017-06-08T22:42:41.108Z,52.50
2017-06-08T22:45:09.212Z,51.90
2017-06-08T22:47:37.267Z,52.50
2017-06-08T22:50:05.326Z,51.60
2017-06-08T22:52:33.403Z,50.20
2017-06-08T22:55:01.468Z,50.80
2017-06-08T22:57:29.522Z,50.30
2017-06-08T22:59:57.597Z,50.30
2017-06-08T23:02:25.655Z,50.30
2017-06-08T23:04:53.710Z,49.80
2017-06-08T23:07:22.078Z,48.60
2017-06-08T23:09:50.142Z,49.10
2017-06-08T23:12:18.229Z,50.40
2017-06-08T23:14:47.067Z,48.70
2017-06-08T23:17:15.150Z,48.70
2017-06-08T23:19:43.198Z,49.00
2017-06-08T23:22:11.258Z,48.80
2017-06-08T23:24:39.359Z,48.20
2017-06-08T23:27:07.425Z,47.70
2017-06-08T23:29:35.471Z,47.00
2017-06-08T23:32:03.558Z,48.20
2017-06-08T23:34:31.622Z,47.70
2017-06-08T23:36:59.674Z,47.30
2017-06-08T23:39:27.758Z,47.70
2017-06-08T23:41:55.810Z,47.60
2017-06-08T23:44:23.873Z,46.80
2017-06-08T23:46:52.694Z,47.80
2017-06-08T23:49:20.782Z,47.70
2017-06-08T23:51:48.829Z,47.70
2017-06-08T23:54:16.886Z,47.50
2017-06-08T23:56:44.963Z,48.00
2017-06-08T23:59:13.014Z,48.30
